createdAt,value
2017-07-20T00:01:35.489Z,12.43
2017-07-20T00:04:02.883Z,12.97
2017-07-20T00:06:30.290Z,13.27
2017-07-20T00:08:57.678Z,12.57
2017-07-20T00:11:25.089Z,13.17
2017-07-20T00:13:52.474Z,13.20
2017-07-20T00:16:19.879Z,15.50
2017-07-20T00:18:47.275Z,16.60
2017-07-20T00:21:14.683Z,14.30
2017-07-20T00:23:42.079Z,14.90
2017-07-20T00:26:09.483Z,15.70
2017-07-20T00:28:36.883Z,14.03
2017-07-20T00:31:04.278Z,17.30
2017-07-20T00:33:31.685Z,16.73
2017-07-20T00:35:59.074Z,18.70
2017-07-20T00:38:26.475Z,17.47
2017-07-20T00:40:53.914Z,17.00
2017-07-20T00:43:21.287Z,16.27
2017-07-20T00:45:48.687Z,14.17
2017-07-20T00:48:16.078Z,16.97
2017-07-20T00:50:43.479Z,16.90
2017-07-20T00:53:10.875Z,16.63
2017-07-20T00:55:38.277Z,15.70
2017-07-20T00:58:05.670Z,16.33
2017-07-20T01:00:33.294Z,15.93
2017-07-20T01:03:00.682Z,16.70
2017-07-20T01:05:28.078Z,16.87
2017-07-20T01:07:55.479Z,17.73
2017-07-20T01:10:22.879Z,16.03
2017-07-20T01:12:50.276Z,15.17
2017-07-20T01:15:17.679Z,13.87
2017-07-20T01:17:45.087Z,15.60
2017-07-20T01:20:12.488Z,16.00
2017-07-20T01:22:39.895Z,15.80
2017-07-20T01:25:07.282Z,15.47
2017-07-20T01:27:34.683Z,17.47
2017-07-20T01:30:02.375Z,15.83
2017-07-20T01:32:29.775Z,17.73
2017-07-20T01:34:57.171Z,17.23
2017-07-20T01:37:24.571Z,16.93
2017-07-20T01:39:51.977Z,17.43
2017-07-20T01:42:19.370Z,16.40
2017-07-20T01:44:46.763Z,17.50
2017-07-20T01:47:14.194Z,15.13
2017-07-20T01:49:41.594Z,15.70
2017-07-20T01:52:08.996Z,15.90
2017-07-20T01:54:36.403Z,15.80
2017-07-20T01:57:03.800Z,15.47
2017-07-20T01:59:31.195Z,14.70
2017-07-20T02:01:58.587Z,13.93
2017-07-20T02:04:25.986Z,14.53
2017-07-20T02:06:53.390Z,15.30
2017-07-20T02:09:21.007Z,16.37
2017-07-20T02:11:48.411Z,12.33
2017-07-20T02:14:15.807Z,15.07
2017-07-20T02:16:43.215Z,13.00
2017-07-20T02:19:10.616Z,14.33
2017-07-20T02:21:38.017Z,14.23
2017-07-20T02:24:05.410Z,14.23
2017-07-20T02:26:32.817Z,14.80
2017-07-20T02:29:00.418Z,14.80
2017-07-20T02:31:27.819Z,13.43
2017-07-20T02:33:55.220Z,13.80
2017-07-20T02:36:22.607Z,16.67
2017-07-20T02:38:50.010Z,15.37
2017-07-20T02:41:17.408Z,15.57
2017-07-20T02:43:44.815Z,14.77
2017-07-20T02:46:12.198Z,16.40
2017-07-20T02:48:39.608Z,14.13
2017-07-20T02:51:07.007Z,14.57
2017-07-20T02:53:34.402Z,18.60
2017-07-20T02:56:01.801Z,14.63
2017-07-20T02:58:29.203Z,13.40
2017-07-20T03:00:56.600Z,13.93
2017-07-20T03:03:23.995Z,13.60
2017-07-20T03:05:51.395Z,13.77
2017-07-20T03:08:18.787Z,14.83
2017-07-20T03:10:46.187Z,14.80
2017-07-20T03:13:13.586Z,14.20
2017-07-20T03:15:40.985Z,16.30
2017-07-20T03:18:08.393Z,16.40
2017-07-20T03:20:35.778Z,17.30
2017-07-20T03:23:03.431Z,16.83
2017-07-20T03:25:30.818Z,17.40
2017-07-20T03:27:58.231Z,17.43
2017-07-20T03:30:25.902Z,19.37
2017-07-20T03:32:53.323Z,18.50
2017-07-20T03:35:20.715Z,19.67
2017-07-20T03:37:48.116Z,20.70
2017-07-20T03:40:15.520Z,20.13
2017-07-20T03:42:42.912Z,18.97
2017-07-20T03:45:10.312Z,22.80
2017-07-20T03:47:37.711Z,25.97
2017-07-20T03:50:05.119Z,23.10
2017-07-20T03:52:32.514Z,23.80
2017-07-20T03:54:59.919Z,23.33
2017-07-20T03:57:27.616Z,24.43
2017-07-20T03:59:55.023Z,23.30
2017-07-20T04:02:22.416Z,24.80
2017-07-20T04:04:49.823Z,22.33
2017-07-20T04:07:17.219Z,21.37
2017-07-20T04:09:44.625Z,21.90
2017-07-20T04:12:12.019Z,23.83
2017-07-20T04:14:39.419Z,23.13
2017-07-20T04:17:06.818Z,24.20
2017-07-20T04:19:34.239Z,23.60
2017-07-20T04:22:01.631Z,19.90
2017-07-20T04:24:29.046Z,21.47
2017-07-20T04:26:56.439Z,23.30
2017-07-20T04:29:24.013Z,24.07
2017-07-20T04:31:51.623Z,20.33
2017-07-20T04:34:19.027Z,24.33
2017-07-20T04:36:46.428Z,23.13
2017-07-20T04:39:13.832Z,21.97
2017-07-20T04:41:41.235Z,22.80
2017-07-20T04:44:08.636Z,19.23
2017-07-20T04:46:36.035Z,22.83
2017-07-20T04:49:03.452Z,20.80
2017-07-20T04:51:30.852Z,19.90
2017-07-20T04:53:58.250Z,18.70
2017-07-20T04:56:25.662Z,20.73
2017-07-20T04:58:53.058Z,21.10
2017-07-20T05:01:20.492Z,18.50
2017-07-20T05:03:47.906Z,18.97
2017-07-20T05:06:15.328Z,22.10
2017-07-20T05:08:42.835Z,20.63
2017-07-20T05:11:10.232Z,20.33
2017-07-20T05:13:37.623Z,17.63
2017-07-20T05:16:05.027Z,19.07
2017-07-20T05:18:32.422Z,19.40
2017-07-20T05:20:59.892Z,19.90
2017-07-20T05:23:27.292Z,20.33
2017-07-20T05:25:54.691Z,21.10
2017-07-20T05:28:22.082Z,21.83
2017-07-20T05:30:49.526Z,17.70
2017-07-20T05:33:16.939Z,22.60
2017-07-20T05:35:44.354Z,22.40
2017-07-20T05:38:11.784Z,19.10
2017-07-20T05:40:39.207Z,18.40
2017-07-20T05:43:06.626Z,21.67
2017-07-20T05:45:34.030Z,22.37
2017-07-20T05:48:01.459Z,20.30
2017-07-20T05:50:28.875Z,23.17
2017-07-20T05:52:56.272Z,23.13
2017-07-20T05:55:23.692Z,22.67
2017-07-20T05:57:51.082Z,22.43
2017-07-20T06:00:18.493Z,20.97
2017-07-20T06:02:45.964Z,21.57
2017-07-20T06:05:13.447Z,18.40
2017-07-20T06:07:40.847Z,18.60
2017-07-20T06:10:08.245Z,19.37
2017-07-20T06:12:35.664Z,20.47
2017-07-20T06:15:03.057Z,20.00
2017-07-20T06:17:30.451Z,22.30
2017-07-20T06:19:57.857Z,20.13
2017-07-20T06:22:25.304Z,21.50
2017-07-20T06:24:52.705Z,21.10
2017-07-20T06:27:20.099Z,19.43
2017-07-20T06:29:47.514Z,21.37
2017-07-20T06:32:14.886Z,20.27
2017-07-20T06:34:42.314Z,19.40
2017-07-20T06:37:10.332Z,18.83
2017-07-20T06:39:37.875Z,22.13
2017-07-20T06:42:05.495Z,22.90
2017-07-20T06:44:33.734Z,22.37
2017-07-20T06:47:01.270Z,19.67
2017-07-20T06:49:30.587Z,19.57
2017-07-20T06:51:58.067Z,17.40
2017-07-20T06:54:25.468Z,19.77
2017-07-20T06:56:53.009Z,20.50
2017-07-20T06:59:20.400Z,20.43
2017-07-20T07:01:47.927Z,20.10
2017-07-20T07:04:15.351Z,22.20
2017-07-20T07:06:42.994Z,15.70
2017-07-20T07:09:10.400Z,18.20
2017-07-20T07:11:37.790Z,15.17
2017-07-20T07:14:05.197Z,16.57
2017-07-20T07:16:32.591Z,19.93
2017-07-20T07:19:00.015Z,19.73
2017-07-20T07:21:27.414Z,13.27
2017-07-20T07:23:54.812Z,16.80
2017-07-20T07:26:22.210Z,19.57
2017-07-20T07:28:49.603Z,17.00
2017-07-20T07:31:16.997Z,18.60
2017-07-20T07:33:44.398Z,18.60
2017-07-20T07:36:11.803Z,19.10
2017-07-20T07:38:39.205Z,21.07
2017-07-20T07:41:06.611Z,19.10
2017-07-20T07:43:34.014Z,19.00
2017-07-20T07:46:01.426Z,22.73
2017-07-20T07:48:28.827Z,21.00
2017-07-20T07:50:56.237Z,23.37
2017-07-20T07:53:23.667Z,25.20
2017-07-20T07:55:51.083Z,20.03
2017-07-20T07:58:18.498Z,24.37
2017-07-20T08:00:45.879Z,25.07
2017-07-20T08:03:13.299Z,23.83
2017-07-20T08:05:40.704Z,24.43
2017-07-20T08:08:08.103Z,21.43
2017-07-20T08:10:35.500Z,22.67
2017-07-20T08:13:02.907Z,21.03
2017-07-20T08:15:30.323Z,19.70
2017-07-20T08:17:57.719Z,17.17
2017-07-20T08:20:25.359Z,15.30
2017-07-20T08:22:52.758Z,19.47
2017-07-20T08:25:20.155Z,8.63
2017-07-20T08:27:47.571Z,19.70
2017-07-20T08:30:14.966Z,18.50
2017-07-20T08:32:42.359Z,19.27
2017-07-20T08:35:09.766Z,20.73
2017-07-20T08:37:37.159Z,21.60
2017-07-20T08:40:04.571Z,21.00
2017-07-20T08:42:31.950Z,23.50
2017-07-20T08:44:59.351Z,21.50
2017-07-20T08:47:26.746Z,18.90
2017-07-20T08:49:54.164Z,22.50
2017-07-20T08:52:21.566Z,20.13
2017-07-20T08:54:48.966Z,23.00
2017-07-20T08:57:17.692Z,20.30
2017-07-20T08:59:45.087Z,26.53
2017-07-20T09:02:12.641Z,25.80
2017-07-20T09:04:40.385Z,25.87
2017-07-20T09:07:07.802Z,26.37
2017-07-20T09:09:35.218Z,26.97
2017-07-20T09:12:02.607Z,25.67
2017-07-20T09:14:30.003Z,28.80
2017-07-20T09:16:57.406Z,23.43
2017-07-20T09:19:24.800Z,21.70
2017-07-20T09:21:52.208Z,23.77
2017-07-20T09:24:19.603Z,25.80
2017-07-20T09:26:47.018Z,22.47
2017-07-20T09:29:14.418Z,19.63
2017-07-20T09:31:41.823Z,22.40
2017-07-20T09:34:09.218Z,21.67
2017-07-20T09:36:36.622Z,21.50
2017-07-20T09:39:04.275Z,16.87
2017-07-20T09:41:31.703Z,16.57
2017-07-20T09:43:59.094Z,20.57
2017-07-20T09:46:26.503Z,21.50
2017-07-20T09:48:53.996Z,20.37
2017-07-20T09:51:21.479Z,18.50
2017-07-20T09:53:49.085Z,16.43
2017-07-20T09:56:16.559Z,16.47
2017-07-20T09:58:43.967Z,16.80
2017-07-20T10:01:11.379Z,14.33
2017-07-20T10:03:38.787Z,20.47
2017-07-20T10:06:06.188Z,21.40
2017-07-20T10:08:33.591Z,24.80
2017-07-20T10:11:00.988Z,17.10
2017-07-20T10:13:28.406Z,19.00
2017-07-20T10:15:55.808Z,17.40
2017-07-20T10:18:23.212Z,16.60
2017-07-20T10:20:50.618Z,16.93
2017-07-20T10:23:18.289Z,14.63
2017-07-20T10:25:45.690Z,17.00
2017-07-20T10:28:13.090Z,21.80
2017-07-20T10:30:40.490Z,17.17
2017-07-20T10:33:07.893Z,19.40
2017-07-20T10:35:35.300Z,20.10
2017-07-20T10:38:02.695Z,19.80
2017-07-20T10:40:30.095Z,18.90
2017-07-20T10:42:57.497Z,18.07
2017-07-20T10:45:24.891Z,17.43
2017-07-20T10:47:52.294Z,19.60
2017-07-20T10:50:19.691Z,17.67
2017-07-20T10:52:47.103Z,18.53
2017-07-20T10:55:14.514Z,19.53
2017-07-20T10:57:41.923Z,16.17
2017-07-20T11:00:09.314Z,17.83
2017-07-20T11:02:36.724Z,18.40
2017-07-20T11:05:04.125Z,14.73
2017-07-20T11:07:31.525Z,16.87
2017-07-20T11:09:58.926Z,19.03
2017-07-20T11:12:26.323Z,18.07
2017-07-20T11:14:53.732Z,14.80
2017-07-20T11:17:21.122Z,16.77
2017-07-20T11:19:48.535Z,16.63
2017-07-20T11:22:15.926Z,22.13
2017-07-20T11:24:43.327Z,17.80
2017-07-20T11:27:10.734Z,17.13
2017-07-20T11:29:38.131Z,19.87
2017-07-20T11:32:05.522Z,18.93
2017-07-20T11:34:32.935Z,16.50
2017-07-20T11:37:00.356Z,17.07
2017-07-20T11:39:27.767Z,15.70
2017-07-20T11:41:55.157Z,16.87
2017-07-20T11:44:22.569Z,14.07
2017-07-20T11:46:49.971Z,13.60
2017-07-20T11:49:17.374Z,12.60
2017-07-20T11:51:44.983Z,12.13
2017-07-20T11:54:12.386Z,11.20
2017-07-20T11:56:39.786Z,10.47
2017-07-20T11:59:07.187Z,10.83
2017-07-20T12:01:34.607Z,8.90
2017-07-20T12:04:01.995Z,7.40
2017-07-20T12:06:29.410Z,6.83
2017-07-20T12:08:56.799Z,7.93
2017-07-20T12:11:24.193Z,8.03
2017-07-20T12:13:51.607Z,10.70
2017-07-20T12:16:19.007Z,12.10
2017-07-20T12:18:46.419Z,11.73
2017-07-20T12:21:13.816Z,12.83
2017-07-20T12:23:41.223Z,11.23
2017-07-20T12:26:08.622Z,12.93
2017-07-20T12:28:36.031Z,13.17
2017-07-20T12:31:03.428Z,12.53
2017-07-20T12:33:30.834Z,13.13
2017-07-20T12:35:58.237Z,10.73
2017-07-20T12:38:25.634Z,11.83
2017-07-20T12:40:53.027Z,9.57
2017-07-20T12:43:20.455Z,11.20
2017-07-20T12:45:47.846Z,10.70
2017-07-20T12:48:15.243Z,10.73
2017-07-20T12:50:42.648Z,10.90
2017-07-20T12:53:10.047Z,10.70
2017-07-20T12:55:37.446Z,9.80
2017-07-20T12:58:04.843Z,8.70
2017-07-20T13:00:32.254Z,8.60
2017-07-20T13:02:59.630Z,8.10
2017-07-20T13:05:27.034Z,9.20
2017-07-20T13:07:54.435Z,8.33
2017-07-20T13:10:21.822Z,8.10
2017-07-20T13:12:49.219Z,7.90
2017-07-20T13:15:16.834Z,8.57
2017-07-20T13:17:44.235Z,7.10
2017-07-20T13:20:11.632Z,10.00
2017-07-20T13:22:39.826Z,11.33
2017-07-20T13:25:07.228Z,11.80
2017-07-20T13:27:34.631Z,10.97
2017-07-20T13:30:02.030Z,11.47
2017-07-20T13:32:29.684Z,10.40
2017-07-20T13:34:57.075Z,10.10
2017-07-20T13:37:24.487Z,10.30
2017-07-20T13:39:51.909Z,10.80
2017-07-20T13:42:19.317Z,11.57
2017-07-20T13:44:46.744Z,10.10
2017-07-20T13:47:14.142Z,11.90
2017-07-20T13:49:41.538Z,12.40
2017-07-20T13:52:08.930Z,11.67
2017-07-20T13:54:36.331Z,11.17
2017-07-20T13:57:03.726Z,11.53
2017-07-20T13:59:31.139Z,11.33
2017-07-20T14:01:58.527Z,9.77
2017-07-20T14:04:25.931Z,11.13
2017-07-20T14:06:53.326Z,11.83
2017-07-20T14:09:20.730Z,9.67
2017-07-20T14:11:48.118Z,10.63
2017-07-20T14:14:15.531Z,12.40
2017-07-20T14:16:43.162Z,14.20
2017-07-20T14:19:10.562Z,14.43
2017-07-20T14:21:37.970Z,14.73
2017-07-20T14:24:05.432Z,15.30
2017-07-20T14:26:32.831Z,14.50
2017-07-20T14:29:00.227Z,12.87
2017-07-20T14:31:27.636Z,12.70
2017-07-20T14:33:55.022Z,14.20
2017-07-20T14:36:22.430Z,10.97
2017-07-20T14:38:49.825Z,14.53
2017-07-20T14:41:17.231Z,14.13
2017-07-20T14:43:44.631Z,10.30
2017-07-20T14:46:12.046Z,12.50
2017-07-20T14:48:39.678Z,9.60
2017-07-20T14:51:07.084Z,10.83
2017-07-20T14:53:34.491Z,10.63
2017-07-20T14:56:01.894Z,9.00
2017-07-20T14:58:29.300Z,7.80
2017-07-20T15:00:56.694Z,9.43
2017-07-20T15:03:24.091Z,7.27
2017-07-20T15:05:51.527Z,8.73
2017-07-20T15:08:18.919Z,9.80
2017-07-20T15:10:46.312Z,8.67
2017-07-20T15:13:13.722Z,8.40
2017-07-20T15:15:41.133Z,10.10
2017-07-20T15:18:08.506Z,7.90
2017-07-20T15:20:35.906Z,8.53
2017-07-20T15:23:03.304Z,6.80
2017-07-20T15:25:30.699Z,7.07
2017-07-20T15:27:58.095Z,7.87
2017-07-20T15:30:25.595Z,7.20
2017-07-20T15:32:52.988Z,7.40
2017-07-20T15:35:20.392Z,7.73
2017-07-20T15:37:47.789Z,8.13
2017-07-20T15:40:15.230Z,7.13
2017-07-20T15:42:42.617Z,6.10
2017-07-20T15:45:10.018Z,6.27
2017-07-20T15:47:37.406Z,6.90
2017-07-20T15:50:04.795Z,7.50
2017-07-20T15:52:32.183Z,6.80
2017-07-20T15:54:59.574Z,7.60
2017-07-20T15:57:26.974Z,6.37
2017-07-20T15:59:54.358Z,6.60
2017-07-20T16:02:21.773Z,6.83
2017-07-20T16:04:49.157Z,7.97
2017-07-20T16:07:16.563Z,7.67
2017-07-20T16:09:43.959Z,7.80
2017-07-20T16:12:11.355Z,7.70
2017-07-20T16:14:38.743Z,8.03
2017-07-20T16:17:06.158Z,6.60
2017-07-20T16:19:33.555Z,7.40
2017-07-20T16:22:00.962Z,6.40
2017-07-20T16:24:28.366Z,7.57
2017-07-20T16:26:55.755Z,8.00
2017-07-20T16:29:23.158Z,7.40
2017-07-20T16:31:50.546Z,6.40
2017-07-20T16:34:17.958Z,8.03
2017-07-20T16:36:45.352Z,6.47
2017-07-20T16:39:12.755Z,7.10
2017-07-20T16:41:40.462Z,7.13
2017-07-20T16:44:08.058Z,6.77
2017-07-20T16:46:35.452Z,6.70
2017-07-20T16:49:02.851Z,7.23
2017-07-20T16:51:30.255Z,8.07
2017-07-20T16:53:57.654Z,4.13
2017-07-20T16:56:25.047Z,5.07
2017-07-20T16:58:52.438Z,6.10
2017-07-20T17:01:19.847Z,6.27
2017-07-20T17:03:47.243Z,5.60
2017-07-20T17:06:14.644Z,6.50
2017-07-20T17:08:42.038Z,5.83
2017-07-20T17:11:09.431Z,4.20
2017-07-20T17:13:36.839Z,3.93
2017-07-20T17:16:04.238Z,3.33
2017-07-20T17:18:31.634Z,3.07
2017-07-20T17:20:59.031Z,3.50
2017-07-20T17:23:26.414Z,3.80
2017-07-20T17:25:53.822Z,3.97
2017-07-20T17:28:21.211Z,3.67
2017-07-20T17:30:48.618Z,3.77
2017-07-20T17:33:15.994Z,3.30
2017-07-20T17:35:43.595Z,3.80
2017-07-20T17:38:11.951Z,4.40
2017-07-20T17:40:39.335Z,5.40
2017-07-20T17:43:06.738Z,5.20
2017-07-20T17:45:34.120Z,5.50
2017-07-20T17:48:01.735Z,5.63
2017-07-20T17:50:29.447Z,5.13
2017-07-20T17:52:56.848Z,5.50
2017-07-20T17:55:24.241Z,5.80
2017-07-20T17:57:51.663Z,5.03
2017-07-20T18:00:19.067Z,4.90
2017-07-20T18:02:46.471Z,4.57
2017-07-20T18:05:13.865Z,4.97
2017-07-20T18:07:41.239Z,4.97
2017-07-20T18:10:08.658Z,4.20
2017-07-20T18:12:36.043Z,5.00
2017-07-20T18:15:03.453Z,4.10
2017-07-20T18:17:30.834Z,4.00
2017-07-20T18:19:58.235Z,4.07
2017-07-20T18:22:25.626Z,4.30
2017-07-20T18:24:53.042Z,4.00
2017-07-20T18:27:20.439Z,3.90
2017-07-20T18:29:47.827Z,4.33
2017-07-20T18:32:15.231Z,3.60
2017-07-20T18:34:42.846Z,3.80
2017-07-20T18:37:10.252Z,3.63
2017-07-20T18:39:37.636Z,3.40
2017-07-20T18:42:05.047Z,4.13
2017-07-20T18:44:32.650Z,3.60
2017-07-20T18:47:00.042Z,3.77
2017-07-20T18:49:27.430Z,3.63
2017-07-20T18:51:54.823Z,4.13
2017-07-20T18:54:22.258Z,5.30
2017-07-20T18:56:49.678Z,5.30
2017-07-20T18:59:17.051Z,4.77
2017-07-20T19:01:45.499Z,6.67
2017-07-20T19:04:12.894Z,4.53
2017-07-20T19:06:40.282Z,5.83
2017-07-20T19:09:07.680Z,6.90
2017-07-20T19:11:35.066Z,5.60
2017-07-20T19:14:02.474Z,5.67
2017-07-20T19:16:29.867Z,4.53
2017-07-20T19:18:57.260Z,5.40
2017-07-20T19:21:24.654Z,4.30
2017-07-20T19:23:52.059Z,4.30
2017-07-20T19:26:19.754Z,4.27
2017-07-20T19:28:47.147Z,4.40
2017-07-20T19:31:14.531Z,4.90
2017-07-20T19:33:41.914Z,4.63
2017-07-20T19:36:09.311Z,4.97
2017-07-20T19:38:36.723Z,4.40
2017-07-20T19:41:04.118Z,4.80
2017-07-20T19:43:31.511Z,3.93
2017-07-20T19:45:58.910Z,5.20
2017-07-20T19:48:26.295Z,4.90
2017-07-20T19:50:53.687Z,4.33
2017-07-20T19:53:21.075Z,5.53
2017-07-20T19:55:48.475Z,6.07
2017-07-20T19:58:15.859Z,4.50
2017-07-20T20:00:43.519Z,5.07
2017-07-20T20:03:10.906Z,6.30
2017-07-20T20:05:38.296Z,7.47
2017-07-20T20:08:05.699Z,6.93
2017-07-20T20:10:33.082Z,5.60
2017-07-20T20:13:00.474Z,6.90
2017-07-20T20:15:27.959Z,6.00
2017-07-20T20:17:55.356Z,7.43
2017-07-20T20:20:22.739Z,5.70
2017-07-20T20:22:50.138Z,6.97
2017-07-20T20:25:17.534Z,7.13
2017-07-20T20:27:44.934Z,7.80
2017-07-20T20:30:12.348Z,7.23
2017-07-20T20:32:39.767Z,5.77
2017-07-20T20:35:07.151Z,5.07
2017-07-20T20:37:34.542Z,6.17
2017-07-20T20:40:01.940Z,5.43
2017-07-20T20:42:29.335Z,5.50
2017-07-20T20:44:56.746Z,5.83
2017-07-20T20:47:24.127Z,6.17
2017-07-20T20:49:51.531Z,6.13
2017-07-20T20:52:18.935Z,6.30
2017-07-20T20:54:46.338Z,5.73
2017-07-20T20:57:13.734Z,7.20
2017-07-20T20:59:41.135Z,5.00
2017-07-20T21:02:08.522Z,6.30
2017-07-20T21:04:35.927Z,6.47
2017-07-20T21:07:03.722Z,6.70
2017-07-20T21:09:31.115Z,6.07
2017-07-20T21:11:58.507Z,7.10
2017-07-20T21:14:25.899Z,7.10
2017-07-20T21:16:53.295Z,6.97
2017-07-20T21:19:20.678Z,6.10
2017-07-20T21:21:48.077Z,8.47
2017-07-20T21:24:15.467Z,8.23
2017-07-20T21:26:42.883Z,8.13
2017-07-20T21:29:10.251Z,8.57
2017-07-20T21:31:37.922Z,7.53
2017-07-20T21:34:05.301Z,8.10
2017-07-20T21:36:32.690Z,6.80
2017-07-20T21:39:00.075Z,7.07
2017-07-20T21:41:27.467Z,7.50
2017-07-20T21:43:54.851Z,7.83
2017-07-20T21:46:22.274Z,8.40
2017-07-20T21:48:49.671Z,10.60
2017-07-20T21:51:17.069Z,9.80
2017-07-20T21:53:44.468Z,8.17
2017-07-20T21:56:11.859Z,7.77
2017-07-20T21:58:39.251Z,8.10
2017-07-20T22:01:06.647Z,7.57
2017-07-20T22:03:34.311Z,7.90
2017-07-20T22:06:01.699Z,7.07
2017-07-20T22:08:29.093Z,8.10
2017-07-20T22:10:56.482Z,7.50
2017-07-20T22:13:23.875Z,7.27
2017-07-20T22:15:51.262Z,7.17
2017-07-20T22:18:18.674Z,7.40
2017-07-20T22:20:46.056Z,6.57
2017-07-20T22:23:13.445Z,6.10
2017-07-20T22:25:40.844Z,8.27
2017-07-20T22:28:08.235Z,8.37
2017-07-20T22:30:36.096Z,7.60
2017-07-20T22:33:03.698Z,6.97
2017-07-20T22:35:31.252Z,9.23
2017-07-20T22:37:58.647Z,9.90
2017-07-20T22:40:26.059Z,11.37
2017-07-20T22:42:53.454Z,10.27
2017-07-20T22:45:20.863Z,9.50
2017-07-20T22:47:48.254Z,10.37
2017-07-20T22:50:15.659Z,10.10
2017-07-20T22:52:43.042Z,8.73
2017-07-20T22:55:10.446Z,10.40
2017-07-20T22:57:37.850Z,11.30
2017-07-20T23:00:05.258Z,11.37
2017-07-20T23:02:32.646Z,13.67
2017-07-20T23:05:00.060Z,12.80
2017-07-20T23:07:27.478Z,13.50
2017-07-20T23:09:54.863Z,14.20
2017-07-20T23:12:22.296Z,13.50
2017-07-20T23:14:49.691Z,14.83
2017-07-20T23:17:17.098Z,10.90
2017-07-20T23:19:44.495Z,11.00
2017-07-20T23:22:11.887Z,7.70
2017-07-20T23:24:39.288Z,7.10
2017-07-20T23:27:06.684Z,7.93
2017-07-20T23:29:34.066Z,7.80
2017-07-20T23:32:01.478Z,7.50
2017-07-20T23:34:28.871Z,7.30
2017-07-20T23:36:56.262Z,7.87
2017-07-20T23:39:23.667Z,8.10
2017-07-20T23:41:51.064Z,7.57
2017-07-20T23:44:18.459Z,7.57
2017-07-20T23:46:45.858Z,8.00
2017-07-20T23:49:13.251Z,8.40
2017-07-20T23:51:40.654Z,9.43
2017-07-20T23:54:08.051Z,8.83
2017-07-20T23:56:35.450Z,8.73
2017-07-20T23:59:02.866Z,8.30
